Estación Meteorológica Peña el Pijo (Robertgarden) [ 12/14/19 08:39:25 CET ]

Fecha Hora Presion(HPa) Temp (°C) Humedad % Rocio (°C) Viento ( m/s) Direccion Lluvia 1Hora(mm) Lluvia 24H(mm) LLuvia Total(mm)
2019-Aug-07 01:01:42 1009.400 20.2 47 8.5         363.34
2019-Aug-07 02:02:04 1009.100 18.4 50 7.8         363.34
2019-Aug-07 03:01:37 1008.700 17.9 49 7.0         363.34
2019-Aug-07 04:03:17 1008.400 17.6 47 6.1         363.34
2019-Aug-07 05:01:49 1008.000 18.4 42 5.2         363.34
2019-Aug-07 06:01:47 1008.200 18.4 41 4.9         363.34
2019-Aug-07 07:01:46 1008.400 18.6 41 5.1         363.34
2019-Aug-07 08:01:50 1008.300 18.6 43 5.7         363.34
2019-Aug-07 09:01:32 1008.300 20.3 43 7.3         363.34
2019-Aug-07 10:01:48 1008.500 23.4 35 7.0         363.34
2019-Aug-07 11:01:42 1009.100 26.3 27 5.6         363.34
2019-Aug-07 12:02:02 1009.500 29.4 20 4.1         363.34
2019-Aug-07 13:01:52 1009.200 32.3 15 1.7         363.34
2019-Aug-07 14:01:49 1009.200 32.5 11 -2.0 1.7 NE     363.34
2019-Aug-07 15:02:07 1009.200 34.1 12 0.1 1.7 NNE     363.34
2019-Aug-07 16:01:46 1009.100 33.9 12 -0.0         363.34
2019-Aug-07 17:01:36 1009.000 34.8 12 0.7         363.34
2019-Aug-07 18:01:30 1009.100 32.1 14 0.6         363.34
2019-Aug-07 19:01:52 1009.200 30.8 15 0.5 1.5 N     363.34
2019-Aug-07 20:01:49 1009.100 28.4 17 0.5         363.34
2019-Aug-07 21:01:49 1009.500 25.2 28 5.3         363.34
2019-Aug-07 22:01:44 1010.400 21.6 35 5.4         363.34
2019-Aug-07 23:01:49 1010.300 20.2 40 6.2         363.34

Temperatura Máxima:34°    Temperatura Mínima:17°
Presión Máxima:1010.400 Hpa    Presión Mínima:1008.000 Hpa


Volver